Tiempo atmosférico en la estación meteorológica de Soba, Alto Miera, Cantabria (695 m.)



Fecha
DESCASC
Temp. máxima en grados centígrados (hora)
DESCASC
Temp. mínima en grados centígrados (hora)
DESCASC
Temp. media en grados centígrados
DESCASC
Racha de viento máxima en m/sg (hora)
DESCASC
Velocidad máxima media en intervalos de 10 minutos(hora)
DESCASC
Precipitaciones diarias en mm
DESCASC
Precipitaciones de 00:00 a 06:00 en mm
DESCASC
Precipitaciones de 06:00 a 12:00 en mm
DESCASC
Precipitaciones de 12:00 a 18:00 en mm
DESCASC
Precipitaciones de 18:00 a 24:00 en mm
DESCASC
13-10-2019 23.4 (16:40) 16.2 (19:20) 19.8 23.89 (04:50) 9.44 (04:50) 0 0 0 0 0
12-10-2019 26.3 (17:10) 19.7 (09:10) 23 20.28 (23:20) 9.17 (23:20) 0 0 0 0 0
11-10-2019 26.5 (16:50) 11.6 (00:00) 19.1 11.67 (23:30) 6.11 (23:40) 0 0 0 0 0
10-10-2019 19 (16:20) 7.7 (00:00) 13.3 4.17 (15:00) 2.5 (15:00) 0 0 0 0 0
09-10-2019 14.9 (17:30) 10 (00:00) 12.4 6.94 (17:10) 3.89 (17:10) 3.2 2.4 0.8 0 0
08-10-2019 22.3 (14:50) 11.5 (00:00) 16.9 9.44 (16:20) 4.72 (16:20) 6.4 0 0 1.6 4.8
07-10-2019 21.6 (16:00) 9.8 (00:00) 15.7 4.72 (20:10) 2.5 (23:10) 0 0 0 0 0
06-10-2019 14.1 (13:50) 9.7 (00:00) 11.9 6.39 (17:00) 3.33 (14:10) 3.4 0 0.6 2.6 0.2
05-10-2019 17.8 (14:20) 8.3 (00:00) 13 4.72 (14:20) 2.78 (14:50) 1.8 0.6 0 0 1.2
04-10-2019 16.4 (14:00) 12.1 (00:00) 14.3 4.44 (16:50) 2.78 (16:40) 3.2 0 0.8 1 1.4
03-10-2019 20.6 (17:00) 8.7 (00:00) 14.7 6.11 (14:10) 3.89 (13:30) 0 0 0 0 0
02-10-2019 14.4 (15:00) 10.5 (00:00) 12.4 11.11 (01:30) 5.28 (00:20) 8.4 0 8.4 0 0
01-10-2019 21.2 (04:50) 12.5 (00:00) 16.9 8.33 (04:50) 4.17 (22:40) 4.8 0 0 0 4.8
30-09-2019 25.3 (17:30) 12.5 (00:00) 18.9 4.72 (12:40) 2.22 (00:10) 0 0 0 0 0
29-09-2019 25.2 (14:30) 13.9 (00:00) 19.6 6.94 (03:30) 3.61 (17:00) 0 0 0 0 0
28-09-2019 21.2 (17:30) 11.7 (00:00) 16.5 4.72 (15:00) 3.06 (15:20) 0 0 0 0 0
27-09-2019 20.2 (15:40) 10.7 (00:00) 15.5 6.39 (17:10) 3.61 (17:00) 3.4 0 0 0 3.4
26-09-2019 20.5 (16:50) 10.5 (00:00) 15.5 5.28 (16:20) 2.78 (15:50) 0 0 0 0 0
25-09-2019 18.9 (15:40) 9.9 (00:00) 14.4 5.56 (00:10) 2.78 (13:40) 0 0 0 0 0
24-09-2019 20.8 (05:50) 12.1 (00:00) 16.4 15 (02:20) 8.33 (02:20) 1.4 0 0.2 0 1.2
23-09-2019 20.6 (15:00) 9.8 (00:00) 15.2 7.78 (14:20) 3.61 (22:10) 0.4 0 0 0 0.4
22-09-2019 20 (14:20) 11.4 (00:00) 15.7 12.78 (00:10) 6.39 (01:10) 9.2 7 0 0.4 1.8
21-09-2019 20.4 (13:30) 17.4 (00:00) 18.9 20 (16:20) 8.61 (02:30) 3.2 2.6 0 0.6 0
20-09-2019 26.1 (15:40) 13.5 (00:00) 19.8 18.89 (23:50) 7.78 (20:20) 2.4 0 0 0 2.4
19-09-2019 21.8 (17:20) 11.2 (00:00) 16.5 5.28 (16:50) 3.06 (15:50) 0 0 0 0 0
18-09-2019 19.9 (12:50) 14.1 (00:00) 17 4.17 (16:40) 2.22 (13:00) 0 0 0 0 0
17-09-2019 25.1 (14:20) 14.9 (00:00) 20 6.94 (14:00) 3.89 (16:20) 0 0 0 0 0
16-09-2019 22.8 (15:20) 14.3 (00:00) 18.5 7.22 (00:20) 3.33 (18:00) 0 0 0 0 0
15-09-2019 24.6 (16:00) 16.3 (00:00) 20.4 14.72 (09:20) 7.22 (09:20) 2.8 0 2 0 0.8

Gráficas

Temp. máximas Temp. mínimas Temp. medias Precipitaciones Rachas de viento máximas Velocidades máximas media en intervalos de 10 minutos

Datos horarios

Fecha y hora oficial Temperatura (ºC) Velocidad del viento (km/h) Dirección del viento Racha (km/h) Dirección de racha Precipitación (mm) Presión (hPa) Tendencia (hPa) Humedad (%)
2019-10-14 23:00:00 8.5 5 Nordeste 23 Norte 0 -- -- 84
2019-10-14 22:00:00 8.4 6 Norte 15 Norte 0.2 -- -- 89
2019-10-14 21:00:00 7.9 3 Norte 17 Norte 5.8 -- -- 94
2019-10-14 20:00:00 8.4 15 Norte 36 Norte 0.6 -- -- 93
2019-10-14 19:00:00 12.8 12 Sudeste 40 Sudeste 0 -- -- 68
2019-10-14 18:00:00 13.3 8 Sudeste 54 Sudeste 0 -- -- 65
2019-10-14 17:00:00 14 12 Sudeste 39 Sudeste 0 -- -- 60
2019-10-14 16:00:00 14.1 17 Sudeste 47 Sudeste 0 -- -- 61
2019-10-14 15:00:00 15.1 24 Sudeste 51 Sudeste 0 -- -- 55
2019-10-14 14:00:00 14.8 15 Sudeste 48 Sudeste 0 -- -- 63
2019-10-14 13:00:00 14.3 18 Este 54 Sudeste 0 -- -- 67
2019-10-14 12:00:00 16.2 16 Sudoeste 51 Sudoeste 0.2 -- -- 68
2019-10-14 11:00:00 12.6 5 Norte 15 Sudeste 1 -- -- 99
2019-10-14 10:00:00 11.5 7 Norte 18 Norte 0 -- -- 99
2019-10-14 09:00:00 12 9 Noroeste 17 Noroeste 0 -- -- 97
2019-10-14 08:00:00 13 5 Nordeste 15 Norte 0 -- -- 95
2019-10-14 07:00:00 15.4 9 Norte 30 Noroeste 0 -- -- 75
2019-10-14 06:00:00 19.1 12 Noroeste 35 Noroeste 0 -- -- 51
2019-10-14 05:00:00 19.6 9 Norte 36 Oeste 0 -- -- 50
2019-10-14 04:00:00 19.5 8 Nordeste 42 Sudeste 0 -- -- 51
2019-10-14 03:00:00 19.3 7 Noroeste 50 Este 0 -- -- 47
2019-10-14 02:00:00 19.5 12 Oeste 51 Sudeste 0 -- -- 44
2019-10-14 01:00:00 19 13 Sudeste 42 Sudeste 0 -- -- 45
2019-10-14 00:00:00 19.6 16 Sudeste 44 Sudeste 0 -- -- 44
2019-10-13 23:00:00 20.2 20 Sudeste 38 Sudeste 0 -- -- 41
2019-10-13 22:00:00 20.5 11 Sudeste 34 Sudeste 0 -- -- 34
2019-10-13 21:00:00 21.2 8 Sudeste 45 Sudeste 0 -- -- 35
2019-10-13 20:00:00 20.8 15 Sudeste 29 Sudeste 0 -- -- 42
2019-10-13 19:00:00 17.5 8 Nordeste 24 Sur 0 -- -- 69
2019-10-13 18:00:00 21.6 6 Noroeste 30 Sudeste 0 -- -- 62
2019-10-13 17:00:00 23.3 6 Sur 19 Norte 0 -- -- 45
2019-10-13 16:00:00 21.8 13 Norte 33 Norte 0 -- -- 49
2019-10-13 15:00:00 21.6 7 Este 41 Sudeste 0 -- -- 46
2019-10-13 14:00:00 19 18 Este 48 Sudeste 0 -- -- 53
2019-10-13 13:00:00 18.7 30 Sudeste 60 Sudeste 0 -- -- 54
2019-10-13 12:00:00 18.1 24 Sudeste 56 Sudeste 0 -- -- 58
2019-10-13 11:00:00 17.7 23 Sur 53 Sudoeste 0 -- -- 64
2019-10-13 10:00:00 17.9 20 Sur 52 Sudeste 0 -- -- 66
2019-10-13 09:00:00 18.1 18 Sur 62 Sur 0 -- -- 66
2019-10-13 08:00:00 18.7 24 Sur 70 Sudeste 0 -- -- 59
2019-10-13 07:00:00 19.5 23 Sudeste 53 Sudeste 0 -- -- 53
2019-10-13 06:00:00 20.3 30 Sudeste 68 Sudeste 0 -- -- 48
2019-10-13 05:00:00 21 28 Sudeste 86 Sudeste 0 -- -- 45
2019-10-13 04:00:00 20.8 17 Sudeste 60 Sudeste 0 -- -- 44
2019-10-13 03:00:00 21.6 15 Sudeste 69 Sudeste 0 -- -- 43
2019-10-13 02:00:00 22.2 24 Sudeste 55 Sudeste 0 -- -- 42
2019-10-13 01:00:00 23 17 Sudeste 69 Sudeste 0 -- -- 39
2019-10-13 00:00:00 23.2 29 Sudeste 73 Sudeste 0 -- -- 40
2019-10-12 23:00:00 23.2 26 Sudeste 61 Sudeste 0 -- -- 42
2019-10-12 22:00:00 23.3 16 Sudeste 41 Este 0 -- -- 41
2019-10-12 21:00:00 23.6 13 Sudeste 42 Sudeste 0 -- -- 38
2019-10-12 20:00:00 23.4 10 Sudeste 29 Este 0 -- -- 39
2019-10-12 19:00:00 24.3 7 Sur 31 Sudeste 0 -- -- 39
2019-10-12 18:00:00 25.7 12 Sudeste 29 Sudoeste 0 -- -- 38
2019-10-12 17:00:00 26.2 13 Este 46 Este 0 -- -- 40
2019-10-12 16:00:00 26.1 10 Sur 39 Sudeste 0 -- -- 38
2019-10-12 15:00:00 24.8 13 Sur 42 Norte 0 -- -- 45
2019-10-12 14:00:00 22.5 12 Sudeste 40 Noroeste 0 -- -- 47
2019-10-12 13:00:00 22.1 12 Oeste 34 Este 0 -- -- 49
2019-10-12 12:00:00 21.8 13 Sur 43 Sudeste 0 -- -- 50
2019-10-12 11:00:00 21.1 17 Sudeste 47 Sur 0 -- -- 53
2019-10-12 10:00:00 19.9 27 Sudeste 49 Este 0 -- -- 57
2019-10-12 09:00:00 19.8 21 Sudeste 41 Sudeste 0 -- -- 59
2019-10-12 08:00:00 20.8 19 Sudeste 52 Sudeste 0 -- -- 54
2019-10-12 07:00:00 21.2 21 Sudeste 42 Sudeste 0 -- -- 53
2019-10-12 06:00:00 21 8 Sudeste 39 Este 0 -- -- 54
2019-10-12 05:00:00 21.5 15 Este 40 Sudeste 0 -- -- 52
2019-10-12 04:00:00 21.4 18 Sudeste 31 Sudeste 0 -- -- 54
2019-10-12 03:00:00 21.4 15 Sudeste 38 Sudoeste 0 -- -- 57
2019-10-12 02:00:00 21.8 14 Nordeste 44 Sudeste 0 -- -- 54
2019-10-12 01:00:00 22.2 7 Sudeste 37 Sudeste 0 -- -- 49
2019-10-12 00:00:00 21.1 18 Sudeste 42 Sudeste 0 -- -- 53
2019-10-11 23:00:00 15.5 2 Norte 13 Sur 0 -- -- 92
2019-10-11 22:00:00 22.2 4 Este 18 Este 0 -- -- 52
2019-10-11 21:00:00 22.8 9 Sudeste 28 Este 0 -- -- 46
2019-10-11 20:00:00 23.1 10 Este 21 Sudeste 0 -- -- 46
2019-10-11 19:00:00 24.4 14 Sudeste 31 Sudeste 0 -- -- 43
2019-10-11 18:00:00 25.9 6 Sur 32 Sudeste 0 -- -- 41
2019-10-11 17:00:00 26.4 7 Sudeste 32 Sudeste 0 -- -- 41
2019-10-11 16:00:00 25.7 13 Sudeste 31 Sudeste 0 -- -- 39
2019-10-11 15:00:00 25 12 Sudeste 33 Sudeste 0 -- -- 40
2019-10-11 14:00:00 24.6 8 Sudeste 31 Este 0 -- -- 40
2019-10-11 13:00:00 23.9 13 Sudeste 37 Sudeste 0 -- -- 37
2019-10-11 12:00:00 22.9 11 Sudeste 38 Sudeste 0 -- -- 39
2019-10-11 11:00:00 21.2 8 Sudeste 24 Este 0 -- -- 45
2019-10-11 10:00:00 16 6 Sudeste 15 Este 0 -- -- 61
2019-10-11 09:00:00 15.4 6 Sudeste 16 Este 0 -- -- 61
2019-10-11 08:00:00 17.8 4 Sudeste 15 Noroeste 0 -- -- 52
2019-10-11 07:00:00 19.3 5 Sur 27 Sudeste 0 -- -- 43
2019-10-11 06:00:00 19.6 10 Este 24 Sur 0 -- -- 41
2019-10-11 05:00:00 17.9 5 Sudeste 14 Sudeste 0 -- -- 47
2019-10-11 04:00:00 14.1 5 Sudeste 13 Sur 0 -- -- 60
2019-10-11 03:00:00 13.2 6 Sur 13 Sudeste 0 -- -- 64
2019-10-11 02:00:00 12.1 2 Sudeste 7 Sur 0 -- -- 68
2019-10-11 01:00:00 12.3 4 Sudeste 10 Sudeste 0 -- -- 67
2019-10-11 00:00:00 11.6 0 Calma 8 Sur 0 -- -- 72
2019-10-10 23:00:00 12 3 Sudeste 8 Sur 0 -- -- 76
2019-10-10 22:00:00 11.4 2 Sudeste 7 Sudeste 0 -- -- 88
2019-10-10 21:00:00 11.3 0 Calma 5 Sudeste 0 -- -- 93
2019-10-10 20:00:00 12.5 3 Sudeste 7 Sudeste 0 -- -- 91
2019-10-10 19:00:00 14.5 2 Sur 4 Sur 0 -- -- 85
2019-10-10 18:00:00 18.2 3 Oeste 13 Noroeste 0 -- -- 71
2019-10-10 17:00:00 18.8 8 Noroeste 13 Oeste 0 -- -- 71
2019-10-10 16:00:00 18.7 5 Noroeste 13 Noroeste 0 -- -- 62
2019-10-10 15:00:00 17.5 9 Noroeste 15 Noroeste 0 -- -- 68
2019-10-10 14:00:00 17 5 Noroeste 14 Noroeste 0 -- -- 65
2019-10-10 13:00:00 16.1 6 Noroeste 11 Noroeste 0 -- -- 65
2019-10-10 12:00:00 15 2 Noroeste 5 Noroeste 0 -- -- 72
2019-10-10 11:00:00 11.6 2 Sur 5 Este 0 -- -- 85
2019-10-10 10:00:00 8.7 0 Calma 10 Sudeste 0 -- -- 90
2019-10-10 09:00:00 8.1 4 Sudeste 9 Sudeste 0 -- -- 89
2019-10-10 08:00:00 8.1 3 Sudeste 7 Este 0 -- -- 89
2019-10-10 07:00:00 8.2 5 Sudeste 10 Sudeste 0 -- -- 90
2019-10-10 06:00:00 7.7 3 Sudeste 9 Sudeste 0 -- -- 94
2019-10-10 05:00:00 8.5 3 Sudeste 10 Sudeste 0 -- -- 90
2019-10-10 04:00:00 9.9 5 Sudeste 9 Sudeste 0 -- -- 90
2019-10-10 03:00:00 10.1 0 Calma 5 Sudeste 0 -- -- 95
2019-10-10 02:00:00 10.3 0 Calma 6 Sudeste 0 -- -- 94
2019-10-10 01:00:00 10.2 3 Sur 8 Este 0 -- -- 91
2019-10-10 00:00:00 10 0 Calma 5 Sudeste 0 -- -- 92
2019-10-09 23:00:00 10.5 0 Calma 3 Este 0 -- -- 93
2019-10-09 22:00:00 10.5 0 Calma 3 Sur 0 -- -- 92
2019-10-09 21:00:00 11.2 0 Calma 11 Noroeste 0 -- -- 90
2019-10-09 20:00:00 11.3 6 Norte 15 Noroeste 0 -- -- 88
2019-10-09 19:00:00 12.1 0 Calma 20 Noroeste 0 -- -- 84
2019-10-09 18:00:00 13.4 8 Noroeste 25 Noroeste 0 -- -- 74
2019-10-09 17:00:00 13.9 8 Noroeste 24 Noroeste 0 -- -- 73
2019-10-09 16:00:00 14.2 11 Noroeste 22 Noroeste 0 -- -- 74
2019-10-09 15:00:00 13 10 Norte 22 Noroeste 0 -- -- 79
2019-10-09 14:00:00 13.3 9 Noroeste 23 Noroeste 0 -- -- 78
2019-10-09 13:00:00 13.2 6 Noroeste 24 Norte 0 -- -- 75
2019-10-09 12:00:00 12.2 3 Nordeste 10 Sur 0 -- -- 80
2019-10-09 11:00:00 11.2 3 Noroeste 9 Noroeste 0 -- -- 86
2019-10-09 10:00:00 10.4 0 Calma 6 Noroeste 0 -- -- 94
2019-10-09 09:00:00 10.5 0 Calma 15 Norte 0 -- -- 96
2019-10-09 08:00:00 10.6 5 Norte 16 Noroeste 0.4 -- -- 99
2019-10-09 07:00:00 10.5 0 Calma 3 Noroeste 0.4 -- -- 100
2019-10-09 06:00:00 10.6 0 Calma 5 Nordeste 0.6 -- -- 100
2019-10-09 05:00:00 10.7 5 Norte 16 Norte 0.2 -- -- 99
2019-10-09 04:00:00 11.2 0 Calma 10 Noroeste 0.4 -- -- 100
2019-10-09 03:00:00 11.3 4 Noroeste 8 Noroeste 0 -- -- 100
2019-10-09 02:00:00 11.2 0 Calma 4 Noroeste 1 -- -- 100
2019-10-09 01:00:00 11.2 3 Noroeste 6 Noroeste 0.2 -- -- 100
2019-10-09 00:00:00 11.5 5 Noroeste 12 Noroeste 0.6 -- -- 100
2019-10-08 23:00:00 12.1 2 Sudeste 3 Sudeste 0 -- -- 100
2019-10-08 22:00:00 12.1 0 Calma 12 Noroeste 0.2 -- -- 100
2019-10-08 21:00:00 12.6 5 Noroeste 12 Noroeste 1.2 -- -- 99
2019-10-08 20:00:00 13.1 3 Noroeste 23 Noroeste 1.6 -- -- 99
2019-10-08 19:00:00 14.5 6 Noroeste 19 Norte 1.2 -- -- 98
2019-10-08 18:00:00 15 10 Norte 31 Noroeste 1.6 -- -- 98
2019-10-08 17:00:00 16 11 Noroeste 34 Norte 0 -- -- 96
2019-10-08 16:00:00 20.3 9 Noroeste 22 Noroeste 0 -- -- 74
2019-10-08 15:00:00 22.2 6 Noroeste 16 Norte 0 -- -- 63
2019-10-08 14:00:00 20.3 12 Noroeste 22 Noroeste 0 -- -- 71
2019-10-08 13:00:00 20.1 8 Noroeste 21 Noroeste 0 -- -- 59
2019-10-08 12:00:00 19.6 5 Noroeste 8 Noroeste 0 -- -- 62
2019-10-08 11:00:00 16.7 0 Calma 8 Sudeste 0 -- -- 72
2019-10-08 10:00:00 13.5 2 Sudeste 8 Sur 0 -- -- 77
2019-10-08 09:00:00 12.7 3 Sudeste 7 Sur 0 -- -- 79
2019-10-08 08:00:00 12.7 0 Calma 7 Sudeste 0 -- -- 78
2019-10-08 07:00:00 12.6 3 Sudeste 7 Sudeste 0 -- -- 76
2019-10-08 06:00:00 12.4 3 Sudeste 9 Sudeste 0 -- -- 75
2019-10-08 05:00:00 13.6 4 Sudeste 10 Sur 0 -- -- 69
2019-10-08 04:00:00 12.6 2 Sudeste 10 Sudeste 0 -- -- 71
2019-10-08 03:00:00 12.8 3 Sudeste 13 Sudeste 0 -- -- 62
2019-10-08 02:00:00 13.1 3 Sudeste 10 Sudeste 0 -- -- 58
2019-10-08 01:00:00 13.1 3 Sur 10 Sudeste 0 -- -- 53
2019-10-08 00:00:00 13.8 3 Sudeste 15 Sudeste 0 -- -- 47
2019-10-07 23:00:00 13.5 5 Sudeste 13 Sudeste 0 -- -- 38
2019-10-07 22:00:00 13.4 5 Sudeste 13 Sudeste 0 -- -- 36
2019-10-07 21:00:00 15 6 Sudeste 17 Sudeste 0 -- -- 31
2019-10-07 20:00:00 14.6 9 Sudeste 15 Sudeste 0 -- -- 49
2019-10-07 19:00:00 14.9 4 Sudeste 8 Sudeste 0 -- -- 60
2019-10-07 18:00:00 20.4 0 Calma 5 Oeste 0 -- -- 52
2019-10-07 17:00:00 21.4 4 Noroeste 12 Noroeste 0 -- -- 43
2019-10-07 16:00:00 21.6 5 Noroeste 12 Noroeste 0 -- -- 44
2019-10-07 15:00:00 21.2 5 Noroeste 10 Noroeste 0 -- -- 37
2019-10-07 14:00:00 20.3 4 Noroeste 14 Noroeste 0 -- -- 41
2019-10-07 13:00:00 19.4 8 Noroeste 14 Noroeste 0 -- -- 37
2019-10-07 12:00:00 18.7 3 Noroeste 10 Norte 0 -- -- 37
2019-10-07 11:00:00 15.1 6 Este 10 Sudeste 0 -- -- 61
2019-10-07 10:00:00 12.9 3 Sudeste 15 Sudeste 0 -- -- 64
2019-10-07 09:00:00 11.8 5 Sudeste 14 Sudeste 0 -- -- 63
2019-10-07 08:00:00 10.7 3 Sudeste 14 Sudeste 0 -- -- 62
2019-10-07 07:00:00 9.8 3 Sudeste 12 Sudeste 0 -- -- 57
2019-10-07 06:00:00 10.2 5 Sudeste 12 Sudeste 0 -- -- 62
2019-10-07 05:00:00 10.7 6 Sudeste 12 Sudeste 0 -- -- 69
2019-10-07 04:00:00 11.2 6 Sudeste 12 Sudeste 0 -- -- 89
2019-10-07 03:00:00 10.9 4 Sudeste 12 Sudeste 0 -- -- 93
2019-10-07 02:00:00 11 2 Sudeste 8 Este 0 -- -- 94
2019-10-07 01:00:00 11.7 4 Sudeste 8 Sudeste 0 -- -- 94
2019-10-07 00:00:00 11.6 0 Calma 2 Sur 0 -- -- 99
2019-10-06 23:00:00 11.7 0 Calma 3 Sudeste 0 -- -- 100
2019-10-06 22:00:00 11.8 0 Calma 5 Sudeste 0 -- -- 99
2019-10-06 21:00:00 12.1 0 Calma 9 Noroeste 0 -- -- 100
2019-10-06 20:00:00 12.3 3 Noroeste 8 Noroeste 0 -- -- 100
2019-10-06 19:00:00 12.7 3 Noroeste 12 Noroeste 0.2 -- -- 99
2019-10-06 18:00:00 13 6 Noroeste 15 Noroeste 0 -- -- 99
2019-10-06 17:00:00 13.7 12 Noroeste 23 Noroeste 0.2 -- -- 97
2019-10-06 16:00:00 13.6 6 Noroeste 18 Norte 0.2 -- -- 97
2019-10-06 15:00:00 13.4 4 Noroeste 21 Noroeste 0.6 -- -- 98
2019-10-06 14:00:00 13.9 8 Noroeste 20 Norte 0.8 -- -- 96
2019-10-06 13:00:00 13.8 4 Norte 11 Norte 0.8 -- -- 98
2019-10-06 12:00:00 13.9 4 Noroeste 12 Norte 0.4 -- -- 99
2019-10-06 11:00:00 13.6 3 Este 6 Este 0 -- -- 98
2019-10-06 10:00:00 12.7 2 Norte 6 Este 0.2 -- -- 98
2019-10-06 09:00:00 12.5 0 Calma 5 Este 0 -- -- 96
2019-10-06 08:00:00 12.6 2 Sudeste 4 Sur 0 -- -- 95
2019-10-06 07:00:00 12.7 2 Sudeste 6 Sudeste 0 -- -- 96
2019-10-06 06:00:00 12.8 2 Sudeste 6 Sudeste 0 -- -- 96
2019-10-06 05:00:00 12.9 0 Calma 8 Este 0 -- -- 93
2019-10-06 04:00:00 12.9 3 Este 9 Sudeste 0 -- -- 92
2019-10-06 03:00:00 12.7 4 Sudeste 10 Sudeste 0 -- -- 93
2019-10-06 02:00:00 10.9 8 Sudeste 13 Sudeste 0 -- -- 94
2019-10-06 01:00:00 10.6 0 Calma 11 Sudeste 0 -- -- 94
2019-10-06 00:00:00 11.5 4 Sur 12 Norte 0 -- -- 99
2019-10-05 23:00:00 12.1 4 Sudeste 9 Sudeste 0 -- -- 95
2019-10-05 22:00:00 12 5 Sudeste 9 Este 0 -- -- 100
2019-10-05 21:00:00 11.9 3 Noroeste 8 Norte 0.6 -- -- 100
2019-10-05 20:00:00 12.1 5 Noroeste 9 Noroeste 0.4 -- -- 100
2019-10-05 19:00:00 12.8 4 Norte 12 Noroeste 0.2 -- -- 99
2019-10-05 18:00:00 13.9 4 Noroeste 13 Norte 0 -- -- 96
2019-10-05 17:00:00 14.6 8 Noroeste 12 Noroeste 0 -- -- 92
2019-10-05 16:00:00 15.3 6 Norte 13 Norte 0 -- -- 89
2019-10-05 15:00:00 16.4 8 Noroeste 17 Norte 0 -- -- 84
2019-10-05 14:00:00 17.4 7 Noroeste 14 Noroeste 0 -- -- 79
2019-10-05 13:00:00 16 5 Norte 12 Norte 0 -- -- 81
2019-10-05 12:00:00 14.9 4 Noroeste 8 Noroeste 0 -- -- 83
2019-10-05 11:00:00 12.8 0 Calma 8 Sudeste 0 -- -- 91
2019-10-05 10:00:00 9.5 2 Sudeste 10 Sudeste 0 -- -- 95
2019-10-05 09:00:00 8.6 4 Sudeste 8 Sudeste 0 -- -- 94
2019-10-05 08:00:00 8.4 2 Sudeste 8 Sudeste 0 -- -- 93
2019-10-05 07:00:00 8.9 5 Sudeste 13 Sudeste 0 -- -- 92
2019-10-05 06:00:00 10.2 6 Sudeste 9 Este 0 -- -- 93
2019-10-05 05:00:00 11.2 3 Sudeste 9 Sudeste 0 -- -- 95
2019-10-05 04:00:00 11.4 2 Sudeste 5 Este 0 -- -- 97
2019-10-05 03:00:00 12 0 Calma 3 Sur 0 -- -- 100
2019-10-05 02:00:00 12 0 Calma 4 Noroeste 0.6 -- -- 100
2019-10-05 01:00:00 12.1 0 Calma 2 Noroeste 0 -- -- 100
2019-10-05 00:00:00 12.2 0 Calma 3 Sur 0.2 -- -- 100
2019-10-04 23:00:00 12.2 0 Calma 8 Noroeste 0.4 -- -- 100
2019-10-04 22:00:00 12.4 0 Calma 8 Norte 0.4 -- -- 100
2019-10-04 21:00:00 12.7 4 Noroeste 10 Noroeste 0.2 -- -- 100
2019-10-04 20:00:00 13.2 4 Noroeste 8 Noroeste 0.2 -- -- 100
2019-10-04 19:00:00 13.4 2 Noroeste 6 Noroeste 0 -- -- 99
2019-10-04 18:00:00 13.5 4 Noroeste 13 Noroeste 0.2 -- -- 100
2019-10-04 17:00:00 13.4 9 Noroeste 16 Noroeste 0.4 -- -- 99
2019-10-04 16:00:00 14.8 4 Noroeste 14 Noroeste 0.4 -- -- 97
2019-10-04 15:00:00 15.2 6 Norte 14 Noroeste 0 -- -- 95
2019-10-04 14:00:00 16.4 5 Noroeste 14 Noroeste 0 -- -- 92
2019-10-04 13:00:00 15.8 8 Noroeste 15 Noroeste 0 -- -- 92
2019-10-04 12:00:00 15.3 3 Noroeste 8 Oeste 0 -- -- 97
2019-10-04 11:00:00 14.7 3 Noroeste 9 Norte 0.2 -- -- 99
2019-10-04 10:00:00 14 0 Calma 5 Norte 0.4 -- -- 99
2019-10-04 09:00:00 13.6 0 Calma 2 Sur 0.2 -- -- 98
2019-10-04 08:00:00 13.6 0 Calma 6 Sudeste 0 -- -- 95
2019-10-04 07:00:00 13.2 0 Calma 5 Sur 0 -- -- 95
2019-10-04 06:00:00 12.6 3 Sur 11 Sudeste 0 -- -- 93
2019-10-04 05:00:00 12.2 3 Sudeste 10 Sudeste 0 -- -- 94
2019-10-04 04:00:00 13 2 Sudeste 5 Sudeste 0 -- -- 91
2019-10-04 03:00:00 14.7 4 Sudeste 14 Sudeste 0 -- -- 87
2019-10-04 02:00:00 13.9 3 Sudeste 11 Sudeste 0 -- -- 88
2019-10-04 01:00:00 13.9 0 Calma 10 Sudeste 0 -- -- 89
2019-10-04 00:00:00 15.3 5 Sudeste 10 Sur 0 -- -- 85
2019-10-03 23:00:00 15 4 Sudeste 9 Sudeste 0 -- -- 90
2019-10-03 22:00:00 14.9 3 Sur 10 Sudeste 0 -- -- 87
2019-10-03 21:00:00 15 5 Sudeste 9 Sudeste 0 -- -- 83
2019-10-03 20:00:00 15.5 2 Sur 5 Este 0 -- -- 80
2019-10-03 19:00:00 16.2 0 Calma 5 Sudoeste 0 -- -- 72
2019-10-03 18:00:00 19.6 2 Oeste 16 Norte 0 -- -- 60
2019-10-03 17:00:00 20.6 5 Oeste 17 Noroeste 0 -- -- 58
2019-10-03 16:00:00 20 5 Noroeste 12 Noroeste 0 -- -- 63
2019-10-03 15:00:00 18.5 4 Oeste 22 Noroeste 0 -- -- 70
2019-10-03 14:00:00 18.1 12 Noroeste 22 Noroeste 0 -- -- 65
2019-10-03 13:00:00 18.1 4 Noroeste 15 Norte 0 -- -- 61
2019-10-03 12:00:00 17.4 6 Noroeste 12 Noroeste 0 -- -- 69
2019-10-03 11:00:00 14.2 3 Sudeste 6 Sudeste 0 -- -- 77
2019-10-03 10:00:00 10.4 2 Sudeste 5 Sudeste 0 -- -- 84
2019-10-03 09:00:00 9.2 0 Calma 9 Este 0 -- -- 87
2019-10-03 08:00:00 8.7 2 Sudeste 7 Este 0 -- -- 89
2019-10-03 07:00:00 9.1 3 Sudeste 6 Sudeste 0 -- -- 90
2019-10-03 06:00:00 8.7 0 Calma 8 Sur 0 -- -- 91
2019-10-03 05:00:00 9.2 3 Sudeste 8 Sudeste 0 -- -- 90
2019-10-03 04:00:00 9.8 0 Calma 9 Sudeste 0 -- -- 90
2019-10-03 03:00:00 9.7 2 Sudeste 5 Este 0 -- -- 93
2019-10-03 02:00:00 10.5 2 Sudeste 8 Este 0 -- -- 92
2019-10-03 01:00:00 11.3 3 Sudeste 8 Sudeste 0 -- -- 93
2019-10-03 00:00:00 11.6 0 Calma 5 Sudeste 0 -- -- 96
2019-10-02 23:00:00 11.7 0 Calma 4 Sudeste 0 -- -- 97
2019-10-02 22:00:00 11.9 0 Calma 5 Oeste 0 -- -- 98
2019-10-02 21:00:00 12 2 Noroeste 8 Noroeste 0 -- -- 97
2019-10-02 20:00:00 12.1 5 Noroeste 12 Norte 0 -- -- 96
2019-10-02 19:00:00 12.3 2 Norte 18 Norte 0 -- -- 95
2019-10-02 18:00:00 12.7 3 Noroeste 17 Noroeste 0 -- -- 92
2019-10-02 17:00:00 13 8 Norte 22 Norte 0 -- -- 89
2019-10-02 16:00:00 13.4 9 Noroeste 25 Norte 0 -- -- 90
2019-10-02 15:00:00 14.4 8 Noroeste 30 Norte 0 -- -- 84
2019-10-02 14:00:00 13.2 8 Norte 22 Norte 0 -- -- 87
2019-10-02 13:00:00 11.8 10 Norte 24 Noroeste 0 -- -- 95
2019-10-02 12:00:00 11.5 15 Norte 27 Noroeste 0.2 -- -- 94
2019-10-02 11:00:00 11 12 Noroeste 32 Noroeste 1.2 -- -- 98
2019-10-02 10:00:00 10.5 8 Norte 31 Norte 1.8 -- -- 99
2019-10-02 09:00:00 10.8 10 Norte 27 Norte 2.2 -- -- 96
2019-10-02 08:00:00 11 19 Norte 36 Norte 2 -- -- 96
2019-10-02 07:00:00 11.3 10 Norte 23 Noroeste 1 -- -- 93
2019-10-02 06:00:00 11.6 6 Norte 23 Norte 0 -- -- 93
2019-10-02 05:00:00 12.1 11 Norte 23 Norte 0 -- -- 87
2019-10-02 04:00:00 12.1 12 Norte 23 Norte 0 -- -- 88
2019-10-02 03:00:00 12.1 3 Nordeste 12 Noroeste 0 -- -- 90
2019-10-02 02:00:00 12.3 5 Norte 40 Noroeste 0 -- -- 89
2019-10-02 01:00:00 12.4 12 Noroeste 36 Norte 0 -- -- 95
2019-10-02 00:00:00 12.5 13 Norte 28 Oeste 0.6 -- -- 97
2019-10-01 23:00:00 12.9 9 Noroeste 26 Noroeste 1 -- -- 99
2019-10-01 22:00:00 13.2 6 Noroeste 26 Norte 2 -- -- 99
2019-10-01 21:00:00 13.2 9 Noroeste 18 Noroeste 0.8 -- -- 98
2019-10-01 20:00:00 13.4 9 Noroeste 22 Noroeste 0.4 -- -- 97
2019-10-01 19:00:00 14 3 Sudoeste 22 Norte 0 -- -- 93
2019-10-01 18:00:00 14 5 Norte 19 Noroeste 0 -- -- 93
2019-10-01 17:00:00 14.4 5 Noroeste 19 Noroeste 0 -- -- 96
2019-10-01 16:00:00 15.4 9 Noroeste 16 Noroeste 0 -- -- 92
2019-10-01 15:00:00 17.5 10 Noroeste 19 Noroeste 0 -- -- 83
2019-10-01 14:00:00 17.8 3 Nordeste 10 Norte 0 -- -- 79
2019-10-01 13:00:00 16.8 7 Norte 16 Noroeste 0 -- -- 80
2019-10-01 12:00:00 16.5 7 Noroeste 15 Norte 0 -- -- 83
2019-10-01 11:00:00 17.1 0 Calma 6 Norte 0 -- -- 79
2019-10-01 10:00:00 16.5 0 Calma 7 Este 0 -- -- 88
2019-10-01 09:00:00 15.2 2 Sudeste 4 Sudeste 0 -- -- 97
2019-10-01 08:00:00 15.5 3 Noroeste 10 Sudeste 0 -- -- 96
2019-10-01 07:00:00 15.4 0 Calma 16 Norte 0 -- -- 96
2019-10-01 06:00:00 15.3 0 Calma 16 Nordeste 0 -- -- 90
2019-10-01 05:00:00 21 9 Sudeste 30 Este 0 -- -- 52
2019-10-01 04:00:00 15 6 Sudeste 14 Sur 0 -- -- 89
2019-10-01 03:00:00 15.4 2 Este 7 Este 0 -- -- 94
2019-10-01 02:00:00 15.8 0 Calma 4 Este 0 -- -- 96
2019-10-01 01:00:00 15.6 3 Este 10 Sudeste 0 -- -- 96
2019-10-01 00:00:00 15.2 2 Sudeste 10 Sudeste 0 -- -- 94
2019-09-30 23:00:00 15.8 4 Sudeste 9 Sudeste 0 -- -- 92
2019-09-30 22:00:00 16.6 0 Calma 10 Sudeste 0 -- -- 88
2019-09-30 21:00:00 16.9 5 Sur 9 Sur 0 -- -- 87
2019-09-30 20:00:00 18.6 3 Sudeste 8 Oeste 0 -- -- 81
2019-09-30 19:00:00 21.3 5 Noroeste 12 Noroeste 0 -- -- 70
2019-09-30 18:00:00 25.2 0 Calma 8 Sudoeste 0 -- -- 61
2019-09-30 17:00:00 24.9 5 Noroeste 10 Noroeste 0 -- -- 58
2019-09-30 16:00:00 24.4 6 Noroeste 12 Norte 0 -- -- 60
2019-09-30 15:00:00 23 7 Noroeste 12 Noroeste 0 -- -- 63
2019-09-30 14:00:00 22.7 5 Noroeste 13 Noroeste 0 -- -- 64
2019-09-30 13:00:00 22.2 5 Noroeste 17 Norte 0 -- -- 65
2019-09-30 12:00:00 21.1 4 Noroeste 10 Noroeste 0 -- -- 67
2019-09-30 11:00:00 18.5 0 Calma 7 Sur 0 -- -- 75
2019-09-30 10:00:00 14 2 Sudeste 8 Sudeste 0 -- -- 84
2019-09-30 09:00:00 13.5 3 Sudeste 10 Este 0 -- -- 83
2019-09-30 08:00:00 12.7 2 Sur 6 Sur 0 -- -- 86
2019-09-30 07:00:00 13.2 3 Sudeste 12 Sudeste 0 -- -- 87
2019-09-30 06:00:00 12.8 2 Sur 6 Sudeste 0 -- -- 93
2019-09-30 05:00:00 13.4 0 Calma 7 Sudeste 0 -- -- 92
2019-09-30 04:00:00 15.1 4 Sudeste 12 Sudeste 0 -- -- 88
2019-09-30 03:00:00 15 3 Sudeste 12 Sudeste 0 -- -- 90
2019-09-30 02:00:00 14.7 6 Sudeste 11 Sudeste 0 -- -- 91
2019-09-30 01:00:00 14.9 4 Sur 13 Sudeste 0 -- -- 90
2019-09-30 00:00:00 14.4 4 Sur 10 Sudeste 0 -- -- 91
2019-09-29 23:00:00 14 3 Sudeste 9 Sudeste 0 -- -- 93
2019-09-29 22:00:00 14.5 5 Sudeste 9 Este 0 -- -- 89
2019-09-29 21:00:00 14.9 3 Sudeste 6 Sudeste 0 -- -- 86
2019-09-29 20:00:00 16.5 2 Sudeste 6 Sur 0 -- -- 80
2019-09-29 19:00:00 18.9 3 Sur 7 Sur 0 -- -- 70
2019-09-29 18:00:00 22.4 5 Oeste 24 Noroeste 0 -- -- 50
2019-09-29 17:00:00 22.7 13 Noroeste 23 Noroeste 0 -- -- 53
2019-09-29 16:00:00 23.9 9 Noroeste 23 Noroeste 0 -- -- 51
2019-09-29 15:00:00 25.1 8 Noroeste 14 Norte 0 -- -- 43
2019-09-29 14:00:00 24.9 6 Noroeste 14 Oeste 0 -- -- 41
2019-09-29 13:00:00 24.6 3 Norte 22 Noroeste 0 -- -- 35
2019-09-29 12:00:00 24.1 8 Sur 17 Sudeste 0 -- -- 29
2019-09-29 11:00:00 22.5 10 Sur 22 Sur 0 -- -- 29
2019-09-29 10:00:00 17.6 7 Sudeste 16 Sudeste 0 -- -- 37
2019-09-29 09:00:00 16.4 7 Sudeste 19 Sudeste 0 -- -- 40
2019-09-29 08:00:00 16.2 10 Sudeste 22 Sur 0 -- -- 43
2019-09-29 07:00:00 13.9 3 Sur 14 Sudeste 0 -- -- 53
2019-09-29 06:00:00 16.3 5 Sudeste 16 Este 0 -- -- 46
2019-09-29 05:00:00 18.3 4 Sudeste 18 Sudeste 0 -- -- 37
2019-09-29 04:00:00 18.2 9 Sudeste 25 Sudeste 0 -- -- 46
2019-09-29 03:00:00 17.5 7 Sudeste 14 Sudeste 0 -- -- 49
2019-09-29 02:00:00 17.1 7 Sudeste 14 Sur 0 -- -- 49
2019-09-29 01:00:00 15.8 2 Sudeste 11 Sudeste 0 -- -- 59
2019-09-29 00:00:00 14.9 6 Sudeste 12 Sur 0 -- -- 61
2019-09-28 23:00:00 13 3 Norte 12 Sudeste 0 -- -- 85
2019-09-28 22:00:00 14.4 4 Este 9 Sudeste 0 -- -- 96
2019-09-28 21:00:00 15.2 0 Calma 8 Noroeste 0 -- -- 96
2019-09-28 20:00:00 16.3 0 Calma 6 Noroeste 0 -- -- 92
2019-09-28 19:00:00 18.7 2 Oeste 16 Noroeste 0 -- -- 84
2019-09-28 18:00:00 21 6 Noroeste 12 Noroeste 0 -- -- 79
2019-09-28 17:00:00 20.8 8 Noroeste 16 Noroeste 0 -- -- 77
2019-09-28 16:00:00 20.4 6 Noroeste 17 Noroeste 0 -- -- 77
2019-09-28 15:00:00 19.8 9 Noroeste 17 Noroeste 0 -- -- 81
2019-09-28 14:00:00 18.9 8 Noroeste 13 Noroeste 0 -- -- 80
2019-09-28 13:00:00 17.5 5 Noroeste 10 Noroeste 0 -- -- 80
2019-09-28 12:00:00 16 3 Noroeste 10 Noroeste 0 -- -- 84
2019-09-28 11:00:00 15 2 Este 5 Este 0 -- -- 92
2019-09-28 10:00:00 11.9 0 Calma 4 Este 0 -- -- 100
2019-09-28 09:00:00 12.3 0 Calma 2 Noroeste 0 -- -- 100
2019-09-28 08:00:00 12.1 0 Calma 0 Calma 0 -- -- 100
2019-09-28 07:00:00 12.2 0 Calma 2 Sudeste 0 -- -- 100
2019-09-28 06:00:00 12.1 0 Calma 4 Noroeste 0 -- -- 100
2019-09-28 05:00:00 12.2 2 Noroeste 3 Noroeste 0 -- -- 100
2019-09-28 04:00:00 12.3 2 Noroeste 3 Sur 0 -- -- 100
2019-09-28 03:00:00 12.3 0 Calma 2 Sur 0 -- -- 100
2019-09-28 02:00:00 12.2 0 Calma 2 Sudeste 0 -- -- 100
2019-09-28 01:00:00 12.2 0 Calma 4 Noroeste 0 -- -- 100
2019-09-28 00:00:00 12.3 2 Norte 4 Noroeste 0 -- -- 100
2019-09-27 23:00:00 12.3 0 Calma 6 Sudeste 0 -- -- 99
2019-09-27 22:00:00 11.8 4 Sudeste 7 Sudeste 0.6 -- -- 99
2019-09-27 21:00:00 12 2 Este 19 Norte 1 -- -- 97
2019-09-27 20:00:00 13.2 9 Noroeste 21 Norte 1.2 -- -- 98
2019-09-27 19:00:00 13.9 5 Norte 17 Noroeste 0.6 -- -- 98
2019-09-27 18:00:00 15.3 6 Noroeste 23 Noroeste 0 -- -- 94
2019-09-27 17:00:00 17.8 13 Noroeste 22 Noroeste 0 -- -- 86
2019-09-27 16:00:00 19.2 6 Noroeste 13 Noroeste 0 -- -- 77
2019-09-27 15:00:00 18.9 8 Noroeste 19 Noroeste 0 -- -- 76
2019-09-27 14:00:00 19.9 8 Noroeste 14 Norte 0 -- -- 73
2019-09-27 13:00:00 19.2 4 Noroeste 14 Oeste 0 -- -- 73
2019-09-27 12:00:00 17.1 5 Noroeste 16 Norte 0 -- -- 79
2019-09-27 11:00:00 15.8 11 Norte 21 Noroeste 0 -- -- 80
2019-09-27 10:00:00 14.5 2 Sur 10 Sudeste 0 -- -- 85
2019-09-27 09:00:00 14.3 5 Sudeste 14 Sudeste 0 -- -- 83
2019-09-27 08:00:00 13.5 5 Sudeste 13 Sudeste 0 -- -- 87
2019-09-27 07:00:00 13.5 4 Sudeste 11 Sudeste 0 -- -- 86
2019-09-27 06:00:00 13.9 4 Sudeste 13 Sudeste 0 -- -- 86
2019-09-27 05:00:00 12.7 6 Sudeste 13 Sudeste 0 -- -- 86
2019-09-27 04:00:00 11.5 2 Sur 10 Sudeste 0 -- -- 87
2019-09-27 03:00:00 11.3 5 Sudeste 9 Sur 0 -- -- 84
2019-09-27 02:00:00 12 3 Sudeste 16 Sudeste 0 -- -- 82
2019-09-27 01:00:00 11.9 5 Sur 10 Sudeste 0 -- -- 90
2019-09-27 00:00:00 10.8 0 Calma 6 Sudeste 0 -- -- 87
2019-09-26 23:00:00 11.7 2 Sudeste 8 Sudeste 0 -- -- 91
2019-09-26 22:00:00 12.9 2 Sudeste 5 Sur 0 -- -- 88
2019-09-26 21:00:00 14.6 4 Sur 15 Este 0 -- -- 85
2019-09-26 20:00:00 15.6 2 Sudoeste 8 Noroeste 0 -- -- 91
2019-09-26 19:00:00 17.1 3 Noroeste 12 Noroeste 0 -- -- 85
2019-09-26 18:00:00 18 5 Noroeste 19 Noroeste 0 -- -- 85
2019-09-26 17:00:00 20.3 10 Noroeste 19 Noroeste 0 -- -- 77
2019-09-26 16:00:00 20.3 9 Noroeste 16 Noroeste 0 -- -- 76
2019-09-26 15:00:00 20 9 Noroeste 16 Noroeste 0 -- -- 74
2019-09-26 14:00:00 19.3 5 Noroeste 13 Noroeste 0 -- -- 75
2019-09-26 13:00:00 18 6 Noroeste 12 Noroeste 0 -- -- 78
2019-09-26 12:00:00 16.3 7 Noroeste 12 Norte 0 -- -- 84
2019-09-26 11:00:00 15.3 0 Calma 4 Sur 0 -- -- 84
2019-09-26 10:00:00 11.4 0 Calma 5 Este 0 -- -- 97
2019-09-26 09:00:00 10.7 0 Calma 10 Sudeste 0 -- -- 97
2019-09-26 08:00:00 10.5 2 Sudeste 4 Este 0 -- -- 96
2019-09-26 07:00:00 11.2 2 Sudeste 8 Sudeste 0 -- -- 94
2019-09-26 06:00:00 11.1 3 Sudeste 9 Este 0 -- -- 94
2019-09-26 05:00:00 11.5 4 Sudeste 11 Sudeste 0 -- -- 93
2019-09-26 04:00:00 10.8 2 Sudeste 11 Sudeste 0 -- -- 95
2019-09-26 03:00:00 11.8 5 Sudeste 9 Sudeste 0 -- -- 93
2019-09-26 02:00:00 13.2 4 Sudeste 9 Sur 0 -- -- 90
2019-09-26 01:00:00 13.3 0 Calma 4 Sudeste 0 -- -- 92
2019-09-26 00:00:00 13.4 3 Sudeste 4 Sudeste 0 -- -- 94
2019-09-25 23:00:00 13.5 0 Calma 3 Oeste 0 -- -- 93
2019-09-25 22:00:00 13.6 3 Norte 5 Norte 0 -- -- 91
2019-09-25 21:00:00 14.1 0 Calma 13 Noroeste 0 -- -- 89
2019-09-25 20:00:00 15.2 0 Calma 10 Noroeste 0 -- -- 84
2019-09-25 19:00:00 16.1 4 Noroeste 10 Noroeste 0 -- -- 78
2019-09-25 18:00:00 17.4 3 Noroeste 9 Noroeste 0 -- -- 74
2019-09-25 17:00:00 17.6 5 Noroeste 13 Noroeste 0 -- -- 73
2019-09-25 16:00:00 18.5 8 Noroeste 15 Noroeste 0 -- -- 70
2019-09-25 15:00:00 18.3 4 Norte 18 Noroeste 0 -- -- 66
2019-09-25 14:00:00 17 6 Noroeste 18 Oeste 0 -- -- 66
2019-09-25 13:00:00 17 5 Norte 16 Norte 0 -- -- 64
2019-09-25 12:00:00 16.1 2 Este 14 Norte 0 -- -- 66
2019-09-25 11:00:00 14.2 4 Este 10 Sudeste 0 -- -- 74
2019-09-25 10:00:00 12.6 0 Calma 5 Este 0 -- -- 86
2019-09-25 09:00:00 10.9 0 Calma 10 Sudeste 0 -- -- 94
2019-09-25 08:00:00 9.9 3 Sur 6 Sur 0 -- -- 93
2019-09-25 07:00:00 10.3 2 Sudeste 7 Sur 0 -- -- 93
2019-09-25 06:00:00 10.4 0 Calma 7 Sur 0 -- -- 91
2019-09-25 05:00:00 11.1 3 Sur 10 Sudeste 0 -- -- 91
2019-09-25 04:00:00 12.1 2 Sudeste 6 Sudeste 0 -- -- 94
2019-09-25 03:00:00 12.2 2 Sudeste 10 Noroeste 0 -- -- 94
2019-09-25 02:00:00 12.4 6 Norte 14 Norte 0 -- -- 91
2019-09-25 01:00:00 12.2 0 Calma 20 Norte 0 -- -- 94
2019-09-25 00:00:00 12.2 2 Este 6 Sudeste 0 -- -- 95
2019-09-24 23:00:00 12.2 2 Este 17 Norte 0.2 -- -- 97
2019-09-24 22:00:00 12.4 2 Noroeste 5 Este 0.4 -- -- 98
2019-09-24 21:00:00 12.4 0 Calma 8 Norte 0.2 -- -- 97
2019-09-24 20:00:00 12.9 7 Norte 13 Norte 0.4 -- -- 95
2019-09-24 19:00:00 13.8 0 Calma 9 Noroeste 0 -- -- 95
2019-09-24 18:00:00 14.9 3 Noroeste 9 Noroeste 0 -- -- 86
2019-09-24 17:00:00 14.9 3 Noroeste 6 Noroeste 0 -- -- 86
2019-09-24 16:00:00 14.6 0 Calma 13 Norte 0 -- -- 89
2019-09-24 15:00:00 14.3 7 Noroeste 17 Norte 0 -- -- 90
2019-09-24 14:00:00 14.7 9 Norte 20 Norte 0 -- -- 92
2019-09-24 13:00:00 17.6 12 Norte 18 Norte 0 -- -- 84
2019-09-24 12:00:00 19 3 Noroeste 14 Sur 0 -- -- 70
2019-09-24 11:00:00 19.1 9 Sur 20 Sur 0 -- -- 65
2019-09-24 10:00:00 17.5 8 Sudeste 21 Sur 0 -- -- 71
2019-09-24 09:00:00 14.9 4 Este 9 Norte 0 -- -- 86
2019-09-24 08:00:00 15.9 5 Sudeste 16 Oeste 0.2 -- -- 76
2019-09-24 07:00:00 18.2 5 Sur 36 Sudeste 0 -- -- 59
2019-09-24 06:00:00 20.6 13 Sudeste 47 Sudeste 0 -- -- 42
2019-09-24 05:00:00 20.4 23 Sudeste 45 Sudeste 0 -- -- 49
2019-09-24 04:00:00 19.7 14 Sudeste 40 Sudeste 0 -- -- 55
2019-09-24 03:00:00 18.5 16 Sudeste 54 Sudeste 0 -- -- 58
2019-09-24 02:00:00 18.7 14 Sudeste 44 Sur 0 -- -- 56
2019-09-24 01:00:00 17.9 5 Oeste 16 Noroeste 0 -- -- 61
2019-09-24 00:00:00 18.2 3 Este 13 Sudeste 0 -- -- 62
2019-09-23 23:00:00 17 4 Este 27 Sur 0.2 -- -- 75
2019-09-23 22:00:00 18.7 9 Sur 21 Sur 0 -- -- 57
2019-09-23 21:00:00 16.8 5 Nordeste 12 Sudeste 0 -- -- 75
2019-09-23 20:00:00 16.3 4 Sudeste 13 Este 0.2 -- -- 76
2019-09-23 19:00:00 17.4 5 Sudeste 14 Este 0 -- -- 64
2019-09-23 18:00:00 18.2 2 Sudeste 13 Sudeste 0 -- -- 70
2019-09-23 17:00:00 18.7 6 Sur 18 Sur 0 -- -- 60
2019-09-23 16:00:00 19.7 9 Sur 20 Sur 0 -- -- 51
2019-09-23 15:00:00 20.6 8 Sur 28 Sudeste 0 -- -- 48
2019-09-23 14:00:00 19.8 5 Sudoeste 22 Sur 0 -- -- 42
2019-09-23 13:00:00 18.6 8 Sur 23 Sudoeste 0 -- -- 52
2019-09-23 12:00:00 17.3 6 Sudeste 15 Sur 0 -- -- 54
2019-09-23 11:00:00 15.4 5 Sudeste 10 Este 0 -- -- 67
2019-09-23 10:00:00 14.9 6 Sudeste 12 Sudeste 0 -- -- 66
2019-09-23 09:00:00 12.7 4 Sudeste 10 Este 0 -- -- 83
2019-09-23 08:00:00 11.5 2 Sudeste 11 Sudeste 0 -- -- 88
2019-09-23 07:00:00 10.5 4 Sudeste 9 Sur 0 -- -- 90
2019-09-23 06:00:00 10.3 2 Sudeste 8 Sudeste 0 -- -- 92
2019-09-23 05:00:00 10.4 3 Sudeste 7 Este 0 -- -- 91
2019-09-23 04:00:00 9.8 2 Sudeste 6 Sudeste 0 -- -- 94
2019-09-23 03:00:00 10.1 0 Calma 9 Sudeste 0 -- -- 94
2019-09-23 02:00:00 10 2 Sudeste 5 Sur 0 -- -- 96
2019-09-23 01:00:00 10.7 2 Sudeste 8 Sudeste 0 -- -- 94
2019-09-23 00:00:00 11.6 3 Sudeste 8 Sudeste 0 -- -- 94
2019-09-22 23:00:00 12 5 Sudeste 11 Sudeste 0 -- -- 95
2019-09-22 22:00:00 12.2 2 Sudeste 6 Noroeste 0.2 -- -- 96
2019-09-22 21:00:00 13.1 2 Sur 6 Sudeste 1.6 -- -- 94
2019-09-22 20:00:00 14.2 0 Calma 8 Noroeste 0 -- -- 88
2019-09-22 19:00:00 15.2 6 Noroeste 16 Noroeste 0 -- -- 81
2019-09-22 18:00:00 16.3 6 Oeste 17 Noroeste 0 -- -- 77
2019-09-22 17:00:00 16.2 0 Calma 19 Noroeste 0.4 -- -- 84
2019-09-22 16:00:00 17 8 Noroeste 17 Noroeste 0 -- -- 79
2019-09-22 15:00:00 18.7 10 Noroeste 17 Noroeste 0 -- -- 64
2019-09-22 14:00:00 19.4 6 Sur 16 Sur 0 -- -- 55
2019-09-22 13:00:00 18.1 8 Sur 18 Sudeste 0 -- -- 61
2019-09-22 12:00:00 16.3 6 Sur 14 Sudeste 0 -- -- 65
2019-09-22 11:00:00 14.7 8 Sudeste 18 Sur 0 -- -- 71
2019-09-22 10:00:00 13.3 4 Este 13 Sudeste 0 -- -- 85
2019-09-22 09:00:00 11.8 6 Sudeste 10 Este 0 -- -- 96
2019-09-22 08:00:00 12.1 2 Este 6 Sur 0 -- -- 100
2019-09-22 07:00:00 12.1 4 Noroeste 13 Noroeste 0 -- -- 100
2019-09-22 06:00:00 12.3 3 Nordeste 17 Noroeste 0 -- -- 99
2019-09-22 05:00:00 14.7 10 Sudeste 29 Sudeste 3.8 -- -- 90
2019-09-22 04:00:00 12.8 3 Este 23 Norte 3.2 -- -- 97
2019-09-22 03:00:00 14.5 15 Noroeste 41 Sudeste 0 -- -- 93
2019-09-22 02:00:00 18.6 13 Sudeste 42 Sur 0 -- -- 73
2019-09-22 01:00:00 19.1 22 Sudeste 46 Sudoeste 0 -- -- 71
2019-09-22 00:00:00 19 14 Sur 64 Sudeste 0 -- -- 72
2019-09-21 23:00:00 19.1 14 Sudeste 55 Sudeste 0 -- -- 71
2019-09-21 22:00:00 19.3 22 Sudeste 49 Sur 0 -- -- 70
2019-09-21 21:00:00 19 22 Sudeste 49 Sur 0 -- -- 71
2019-09-21 20:00:00 18.8 19 Sudeste 51 Sudeste 0 -- -- 71
2019-09-21 19:00:00 19 15 Sudeste 50 Sudeste 0 -- -- 72
2019-09-21 18:00:00 19.1 21 Sudeste 55 Sudeste 0 -- -- 70
2019-09-21 17:00:00 19.9 21 Sudeste 72 Sudeste 0 -- -- 66
2019-09-21 16:00:00 19.1 22 Sudeste 63 Sur 0 -- -- 70
2019-09-21 15:00:00 18.4 17 Sudeste 39 Sur 0.6 -- -- 71
2019-09-21 14:00:00 19.5 15 Sur 47 Sudeste 0 -- -- 65
2019-09-21 13:00:00 19.8 17 Sudeste 50 Este 0 -- -- 61
2019-09-21 12:00:00 18.6 17 Sudeste 38 Sudeste 0 -- -- 67
2019-09-21 11:00:00 18.5 15 Sudeste 50 Sudeste 0 -- -- 67
2019-09-21 10:00:00 17.9 16 Sudeste 50 Sudeste 0 -- -- 68
2019-09-21 09:00:00 17.6 12 Sur 47 Sudeste 0 -- -- 71
2019-09-21 08:00:00 18.4 11 Sur 39 Sudeste 0 -- -- 68
2019-09-21 07:00:00 18.1 18 Sudeste 46 Sur 0 -- -- 70
2019-09-21 06:00:00 18.9 27 Sudeste 51 Sudeste 0 -- -- 61
2019-09-21 05:00:00 19.8 24 Sudeste 51 Sudeste 0 -- -- 57
2019-09-21 04:00:00 19.8 19 Sudeste 50 Sudeste 0 -- -- 60
2019-09-21 03:00:00 19 31 Sudeste 55 Sudeste 0 -- -- 68
2019-09-21 02:00:00 18.4 19 Sudeste 46 Sudeste 2 -- -- 66
2019-09-21 01:00:00 18.3 12 Sudeste 43 Sudeste 0.6 -- -- 71
2019-09-21 00:00:00 19.4 26 Sudeste 68 Sudoeste 0 -- -- 64
2019-09-20 23:00:00 20.6 12 Sudeste 58 Este 0 -- -- 61
2019-09-20 22:00:00 21.4 20 Sudeste 48 Sudeste 0 -- -- 62
2019-09-20 21:00:00 21.7 23 Sudeste 48 Sudeste 0 -- -- 43
2019-09-20 20:00:00 19.9 20 Sudeste 43 Sudeste 2 -- -- 58
2019-09-20 19:00:00 21.3 23 Sudeste 39 Sudeste 0.4 -- -- 60
2019-09-20 18:00:00 23.3 15 Sudeste 38 Sudoeste 0 -- -- 56
2019-09-20 17:00:00 23.7 10 Sudeste 30 Sudeste 0 -- -- 61
2019-09-20 16:00:00 25.1 9 Sur 23 Sur 0 -- -- 55
2019-09-20 15:00:00 25.4 12 Sudeste 32 Sudeste 0 -- -- 54
2019-09-20 14:00:00 25.2 13 Sudeste 31 Sur 0 -- -- 50
2019-09-20 13:00:00 24.2 17 Sudeste 32 Sudeste 0 -- -- 54
2019-09-20 12:00:00 23.6 18 Sudeste 34 Sudeste 0 -- -- 55
2019-09-20 11:00:00 22.4 14 Sudeste 28 Sudeste 0 -- -- 57
2019-09-20 10:00:00 20.6 4 Sudeste 14 Norte 0 -- -- 63
2019-09-20 09:00:00 18.5 3 Noroeste 15 Sudeste 0 -- -- 72
2019-09-20 08:00:00 17.5 3 Norte 8 Sudeste 0 -- -- 73
2019-09-20 07:00:00 17.8 4 Sudeste 12 Sudeste 0 -- -- 72
2019-09-20 06:00:00 17.9 4 Nordeste 13 Sudeste 0 -- -- 75
2019-09-20 05:00:00 17.2 2 Este 11 Este 0 -- -- 79
2019-09-20 04:00:00 18.2 8 Sudeste 24 Sudeste 0 -- -- 78
2019-09-20 03:00:00 14.7 3 Sudeste 8 Sudeste 0 -- -- 93
2019-09-20 02:00:00 14 2 Sudeste 6 Sur 0 -- -- 96
2019-09-20 01:00:00 13.7 2 Sudeste 8 Sudeste 0 -- -- 96
2019-09-20 00:00:00 13.5 2 Sudeste 8 Sudeste 0 -- -- 97
2019-09-19 23:00:00 14.9 3 Sudeste 7 Sudeste 0 -- -- 97
2019-09-19 22:00:00 16 0 Calma 3 Sur 0 -- -- 96
2019-09-19 21:00:00 16.4 0 Calma 3 Nordeste 0 -- -- 94
2019-09-19 20:00:00 18.1 0 Calma 7 Noroeste 0 -- -- 88
2019-09-19 19:00:00 19.5 3 Noroeste 12 Noroeste 0 -- -- 84
2019-09-19 18:00:00 21.1 7 Noroeste 16 Noroeste 0 -- -- 79
2019-09-19 17:00:00 21.6 9 Noroeste 19 Noroeste 0 -- -- 81
2019-09-19 16:00:00 21.5 10 Noroeste 17 Noroeste 0 -- -- 77
2019-09-19 15:00:00 21.3 9 Noroeste 15 Noroeste 0 -- -- 75
2019-09-19 14:00:00 20.5 8 Noroeste 15 Noroeste 0 -- -- 76
2019-09-19 13:00:00 19.2 6 Noroeste 13 Noroeste 0 -- -- 75
2019-09-19 12:00:00 18.4 5 Noroeste 10 Noroeste 0 -- -- 80
2019-09-19 11:00:00 17.6 0 Calma 5 Norte 0 -- -- 80
2019-09-19 10:00:00 12.9 4 Sur 7 Sudeste 0 -- -- 93
2019-09-19 09:00:00 11.9 3 Sudeste 9 Sudeste 0 -- -- 95
2019-09-19 08:00:00 11.3 0 Calma 6 Sudeste 0 -- -- 96
2019-09-19 07:00:00 11.5 2 Sudeste 8 Sudeste 0 -- -- 94
2019-09-19 06:00:00 11.5 2 Sudeste 8 Sudeste 0 -- -- 95
2019-09-19 05:00:00 12 3 Sudeste 7 Sudeste 0 -- -- 91
2019-09-19 04:00:00 11.9 2 Sudeste 8 Sur 0 -- -- 92
2019-09-19 03:00:00 12.3 4 Sudeste 8 Sudeste 0 -- -- 92
2019-09-19 02:00:00 13.5 4 Sudeste 11 Sudeste 0 -- -- 90
2019-09-19 01:00:00 14.2 9 Sudeste 13 Sudeste 0 -- -- 90
2019-09-19 00:00:00 14.4 5 Sudeste 10 Sudeste 0 -- -- 92
2019-09-18 23:00:00 15.2 3 Sur 7 Sur 0 -- -- 96
2019-09-18 22:00:00 16 0 Calma 5 Noroeste 0 -- -- 99
2019-09-18 21:00:00 16.5 2 Noroeste 9 Noroeste 0 -- -- 98
2019-09-18 20:00:00 17.2 4 Noroeste 9 Norte 0 -- -- 96
2019-09-18 19:00:00 17.9 5 Norte 11 Noroeste 0 -- -- 93
2019-09-18 18:00:00 18.3 4 Noroeste 13 Noroeste 0 -- -- 92
2019-09-18 17:00:00 18.5 8 Noroeste 15 Noroeste 0 -- -- 89
2019-09-18 16:00:00 19.5 5 Noroeste 14 Noroeste 0 -- -- 85
2019-09-18 15:00:00 19 6 Noroeste 12 Noroeste 0 -- -- 86
2019-09-18 14:00:00 18.9 5 Noroeste 13 Noroeste 0 -- -- 85
2019-09-18 13:00:00 19.8 8 Noroeste 14 Noroeste 0 -- -- 82
2019-09-18 12:00:00 18.7 4 Noroeste 8 Oeste 0 -- -- 83
2019-09-18 11:00:00 18.1 0 Calma 5 Sur 0 -- -- 85
2019-09-18 10:00:00 15.3 3 Sudeste 5 Norte 0 -- -- 95
2019-09-18 09:00:00 14.4 0 Calma 5 Sudeste 0 -- -- 95
2019-09-18 08:00:00 14.4 3 Sur 9 Sudeste 0 -- -- 92
2019-09-18 07:00:00 15 3 Sudeste 10 Sudeste 0 -- -- 91
2019-09-18 06:00:00 15.6 0 Calma 8 Este 0 -- -- 95
2019-09-18 05:00:00 15.8 3 Sudeste 8 Sur 0 -- -- 95
2019-09-18 04:00:00 16.2 2 Oeste 9 Sudeste 0 -- -- 98
2019-09-18 03:00:00 16.2 0 Calma 5 Noroeste 0 -- -- 100
2019-09-18 02:00:00 16.3 2 Noroeste 7 Noroeste 0 -- -- 100
2019-09-18 01:00:00 16.5 2 Noroeste 11 Noroeste 0 -- -- 100
2019-09-18 00:00:00 17.3 4 Noroeste 8 Noroeste 0 -- -- 99
2019-09-17 23:00:00 17.8 2 Noroeste 6 Noroeste 0 -- -- 99
2019-09-17 22:00:00 18.1 5 Noroeste 9 Norte 0 -- -- 98
2019-09-17 21:00:00 18.7 0 Calma 4 Oeste 0 -- -- 95
2019-09-15 18:00:00 -- -- -- -- -- -- -- -- --
2019-09-15 17:00:00 22 8 Sudeste 37 Sudeste 0 -- -- 60
2019-09-15 16:00:00 24.6 9 Este 33 Sudeste 0 -- -- 54
2019-09-15 15:00:00 24.5 7 Este 21 Este 0 -- -- 52
2019-09-15 14:00:00 21.9 8 Noroeste 15 Noroeste 0 -- -- 63
2019-09-15 13:00:00 21 4 Noroeste 16 Noroeste 0 -- -- 69
2019-09-15 12:00:00 20.5 13 Sur 40 Sudeste 0.6 -- -- 51
2019-09-15 11:00:00 18.1 18 Sudeste 52 Sudeste 1.2 -- -- 68
2019-09-15 10:00:00 20 6 Sudeste 53 Sudeste 0.2 -- -- 52
2019-09-15 09:00:00 20.8 19 Sudeste 35 Sudeste 0 -- -- 47
2019-09-15 08:00:00 18.1 2 Noroeste 14 Sudeste 0 -- -- 61
2019-09-15 07:00:00 19 3 Noroeste 15 Sudoeste 0 -- -- 60
2019-09-15 06:00:00 20.8 4 Sudeste 24 Sudeste 0 -- -- 54
2019-09-15 05:00:00 20.5 3 Este 26 Este 0 -- -- 54
2019-09-15 04:00:00 16.3 3 Sur 9 Sudeste 0 -- -- 79
2019-09-15 03:00:00 16.8 2 Sudeste 13 Sur 0 -- -- 78
2019-09-15 02:00:00 19 3 Norte 27 Sudeste 0 -- -- 68
2019-09-15 01:00:00 21.8 10 Sudeste 24 Sudeste 0 -- -- 52
2019-09-15 00:00:00 20.7 5 Este 21 Este 0 -- -- 61